• Join FlightAware (Why Join?)
  • Login
  • US Flag 
03:36PM EDT


 

Airport Tracker/Info


-or-


 

Live Flight TrackerFlight Track Log ✈ N82HK ✈ 21-Jul-2013 ✈ KCPR - KSZT

Flight Track Log - Related Links

Times and Time Zones

All times are in EDT time to prevent confusion due to time zone crossing. See the N82HK flight status page for this flight to view local times or setup timezone preferences in your user account.

Time Position Orientation Groundspeed Altitude Reporting Facility
EDT Latitude Longitude Course Direction KTS MPH feet Rate Location/Type
06:11PM 42.9947 -106.6000 311° West 115 132 8,400  Level Denver Center
06:12PM 43.0206 -106.6453 308° West 126 145 8,900 480 Climbing Denver Center
06:13PM 43.0620 -106.7211 311° West  Level FlightAware Approximate
06:13PM 43.0442 -106.6814 312° West 131 151 9,400  Level Denver Center
06:14PM 43.0900 -106.7652 311° West  Level FlightAware Approximate
06:14PM 43.0692 -106.7189 312° West 124 143 9,900  Level Denver Center
06:15PM 43.1181 -106.8093 311° West  Level FlightAware Approximate
06:15PM 43.0869 -106.7556 304° West 122 140 10,400  Level Denver Center
06:16PM 43.1136 -106.7969 311° West 130 150 10,900 360 Climbing Denver Center
06:17PM 43.1389 -106.8353 312° West 140 161 11,200 360 Climbing Denver Center
06:18PM 43.1628 -106.8753 309° West 135 155 11,700 360 Climbing Denver Center
06:19PM 43.1883 -106.9167 310° West 140 161 12,000 120 Climbing Denver Center
06:20PM 43.2150 -106.9581 311° West 143 165 12,000  Level Denver Center
06:21PM 43.2506 -107.0136 311° West 158 182 12,000  Level Denver Center
06:22PM 43.2778 -107.0625 307° West 161 185 12,000  Level Denver Center
06:23PM 43.3069 -107.1053 313° West 155 178 12,000  Level Denver Center
06:24PM 43.3358 -107.1506 311° West 158 182 12,000  Level Denver Center
06:25PM 43.3636 -107.1967 310° West 157 181 12,000  Level Denver Center
06:26PM 43.3908 -107.2419 310° West 154 177 12,100  Climbing Denver Center
06:27PM 43.4244 -107.2967 310° West 156 180 12,100  Level Denver Center
06:28PM 43.4522 -107.3419 310° West 156 180 12,100  Level Denver Center
06:29PM 43.4814 -107.3847 313° West 155 178 12,100  Level Denver Center
06:30PM 43.5086 -107.4325 308° West 156 180 12,100  Level Denver Center
06:31PM 43.5389 -107.4806 311° West 160 184 12,100  Level Denver Center
06:32PM 43.5683 -107.5275 311° West 162 186 12,100  Level Denver Center
06:33PM 43.6019 -107.5875 308° West 163 188 12,100  Level Denver Center
06:34PM 43.6331 -107.6364 311° West 166 191 12,100  Level Denver Center
06:35PM 43.6644 -107.6858 311° West 169 194 12,100  Level Denver Center
06:36PM 43.6953 -107.7336 312° West 168 193 12,100  Level Denver Center
06:37PM 43.7242 -107.7836 309° West 168 193 12,100  Level Denver Center
06:38PM 43.7550 -107.8358 309° West 170 196 12,100  Level Denver Center
06:39PM 43.7850 -107.8856 310° West 170 196 12,100  Level Denver Center
06:40PM 43.8197 -107.9447 309° West 168 193 12,100 -60 Level Denver Center
06:42PM 43.8539 -108.0036 309° West 166 191 12,000 -60 Descending Salt Lake Center
06:43PM 43.8839 -108.0511 311° West 164 189 12,000  Level Salt Lake Center
06:44PM 43.9117 -108.0992 309° West 162 186 12,000  Level Salt Lake Center
06:45PM 43.9481 -108.1603 310° West 165 190 12,000  Level Salt Lake Center
06:46PM 43.9797 -108.2125 310° West 171 197 12,000  Level Salt Lake Center
06:47PM 44.0100 -108.2622 310° West 172 198 12,000  Level Salt Lake Center
06:48PM 44.0403 -108.3122 310° West 170 196 12,100  Climbing Salt Lake Center
06:49PM 44.0692 -108.3611 309° West 168 193 12,100  Level Salt Lake Center
06:50PM 44.0994 -108.4089 311° West 166 191 12,100  Level Salt Lake Center
06:51PM 44.1292 -108.4614 308° West 168 193 12,100 -60 Level Salt Lake Center
06:52PM 44.1642 -108.5217 309° West 168 193 12,000  Descending Salt Lake Center
06:53PM 44.1953 -108.5706 312° West 168 193 12,100  Climbing Salt Lake Center
06:54PM 44.2239 -108.6211 308° West 168 193 12,100  Level Salt Lake Center
06:55PM 44.2522 -108.6703 309° West 166 191 12,100 60 Level Salt Lake Center
06:57PM 44.2879 -108.7328 309° West  Level FlightAware Approximate
06:57PM 44.3108 -108.7697 310° West 166 191 12,300  Level Salt Lake Center
06:59PM 44.3678 -108.8661 310° West 152 175 13,300 480 Climbing Salt Lake Center
07:00PM 44.3925 -108.9064 311° West 146 168 13,900 540 Climbing Salt Lake Center
07:01PM 44.4108 -108.9403 309° West 128 147 14,500 480 Climbing Salt Lake Center
07:02PM 44.4230 -108.9594 309° West  Level FlightAware Approximate
07:02PM 44.4328 -108.9761 311° West 122 140 14,900  Level Salt Lake Center
07:03PM 44.4569 -109.0183 309° West 132 152 15,000  Climbing Salt Lake Center
07:04PM 44.4810 -109.0625 310° West  Level FlightAware Approximate
07:04PM 44.4839 -109.0656 309° West 148 170 15,000  Level Salt Lake Center
07:06PM 44.5164 -109.1233 308° West 156 180 15,000  Level Salt Lake Center
07:07PM 44.5442 -109.1692 310° West 155 178 15,000  Level Salt Lake Center
07:08PM 44.5697 -109.2139 309° West 151 174 15,000  Level Salt Lake Center
07:09PM 44.6084 -109.2834 309° West  Level FlightAware Approximate
07:09PM 44.5961 -109.2619 308° West 153 176 15,000  Level Salt Lake Center
07:10PM 44.6348 -109.3298 309° West  Level FlightAware Approximate
07:10PM 44.6281 -109.3136 311° West 159 183 15,000  Level Salt Lake Center
07:11PM 44.6542 -109.3614 308° West 164 189 15,000  Level Salt Lake Center
07:12PM 44.6853 -109.4100 312° West 166 191 15,000  Level Salt Lake Center
07:13PM 44.7178 -109.4708 307° West 164 189 15,000  Level Salt Lake Center
07:14PM 44.7458 -109.5200 309° West 162 186 15,000  Level Salt Lake Center
07:15PM 44.7775 -109.5719 311° West 169 194 15,000  Level Salt Lake Center
07:16PM 44.8069 -109.6236 309° West 171 197 15,000 -60 Level Salt Lake Center
07:17PM 44.8358 -109.6750 308° West 169 194 14,900 -60 Descending Salt Lake Center
07:18PM 44.8639 -109.7242 309° West 164 189 14,900  Level Salt Lake Center
07:19PM 44.8911 -109.7750 307° West 162 186 14,900  Level Salt Lake Center
07:20PM 44.9247 -109.8353 308° West 163 188 14,900  Level Salt Lake Center
07:21PM 44.9556 -109.8856 311° West 165 190 14,900  Level Salt Lake Center
07:22PM 44.9808 -109.9325 307° West 161 185 14,900 -60 Level Salt Lake Center
07:23PM 45.0058 -109.9792 307° West 157 181 14,800  Descending Salt Lake Center
07:24PM 45.0389 -110.0364 309° West 164 189 14,900  Climbing Salt Lake Center
07:25PM 45.0689 -110.0908 308° West 178 205 14,800  Descending Salt Lake Center
07:26PM 45.0997 -110.1453 309° West 165 190 14,900  Climbing Salt Lake Center
07:27PM 45.1278 -110.1981 307° West 158 182 14,800  Descending Salt Lake Center
07:28PM 45.1544 -110.2478 307° West 158 182 15,000 60 Climbing Salt Lake Center
07:29PM 45.1842 -110.2989 310° West 166 191 15,000  Level Salt Lake Center
07:30PM 45.2147 -110.3536 308° West 174 200 15,000  Level Salt Lake Center
07:31PM 45.2444 -110.4081 308° West 171 197 15,000  Level Salt Lake Center
07:32PM 45.2703 -110.4558 308° West 164 189 15,000  Level Salt Lake Center
07:33PM 45.3042 -110.5153 309° West 170 196 15,100  Climbing Salt Lake Center
07:34PM 45.3328 -110.5678 308° West 174 200 15,000 -60 Descending Salt Lake Center
07:35PM 45.3603 -110.6169 309° West 168 193 15,000  Level Salt Lake Center
07:36PM 45.3933 -110.6769 308° West 160 184 15,000  Level Salt Lake Center
07:37PM 45.4206 -110.7256 309° West 158 182 15,000  Level Salt Lake Center
07:38PM 45.4475 -110.7761 307° West 159 183 15,000  Level Salt Lake Center
07:39PM 45.4756 -110.8281 308° West 164 189 15,000  Level Salt Lake Center
07:41PM 45.5036 -110.8792 308° West 163 188 15,000  Level Salt Lake Center
07:42PM 45.5308 -110.9306 307° West 163 188 15,000  Level Salt Lake Center
07:43PM 45.5589 -110.9808 309° West 162 186 15,000  Level Salt Lake Center
07:44PM 45.5861 -111.0314 308° West 161 185 15,000  Level Salt Lake Center
07:45PM 45.6178 -111.0897 308° West 156 180 15,000  Level Salt Lake Center
07:46PM 45.6442 -111.1394 307° West 155 178 15,000  Level Salt Lake Center
07:47PM 45.6717 -111.1897 308° West 157 181 15,000  Level Salt Lake Center
07:48PM 45.6992 -111.2419 307° West 162 186 15,000  Level Salt Lake Center
07:49PM 45.7258 -111.2925 307° West 158 182 15,000  Level Salt Lake Center
07:50PM 45.7536 -111.3425 309° West 158 182 15,000  Level Salt Lake Center
07:51PM 45.7797 -111.3908 308° West 154 177 15,000  Level Salt Lake Center
07:52PM 45.8056 -111.4397 307° West 153 176 15,000  Level Salt Lake Center
07:53PM 45.8314 -111.4872 308° West 151 174 15,000  Level Salt Lake Center
07:54PM 45.8625 -111.5461 307° West 152 175 15,000  Level Salt Lake Center
07:55PM 45.8878 -111.5936 307° West 152 175 15,100  Climbing Salt Lake Center
07:56PM 45.9131 -111.6439 306° West 152 175 15,000 -60 Descending Salt Lake Center
07:57PM 45.9411 -111.6953 308° West 162 186 15,000  Level Salt Lake Center
07:58PM 45.9683 -111.7469 307° West 161 185 15,000  Level Salt Lake Center
07:59PM 45.9956 -111.7981 307° West 161 185 15,000  Level Salt Lake Center
08:00PM 46.0222 -111.8494 307° West 162 186 15,000  Level Salt Lake Center
08:01PM 46.0531 -111.9078 307° West 155 178 15,000  Level Salt Lake Center
08:02PM 46.0800 -111.9603 307° West 160 184 15,000  Level Salt Lake Center
08:03PM 46.1078 -112.0128 307° West 165 190 15,000  Level Salt Lake Center
08:04PM 46.1358 -112.0661 307° West 167 192 15,000  Level Salt Lake Center
08:05PM 46.1644 -112.1186 308° West 167 192 15,000  Level Salt Lake Center
08:06PM 46.1897 -112.1719 304° West 161 185 15,000  Level Salt Lake Center
08:07PM 46.2183 -112.2261 307° West 168 193 15,000  Level Salt Lake Center
08:08PM 46.2522 -112.2917 307° West 170 196 15,000  Level Salt Lake Center
08:09PM 46.2808 -112.3447 308° West 168 193 15,100  Climbing Salt Lake Center
08:10PM 46.3081 -112.3997 306° West 167 192 15,000  Descending Salt Lake Center
08:11PM 46.3336 -112.4525 305° West 163 188 15,100  Climbing Salt Lake Center
08:12PM 46.3636 -112.5042 310° West 165 190 15,100  Level Salt Lake Center
08:13PM 46.3911 -112.5575 307° West 166 191 15,100  Level Salt Lake Center
08:15PM 46.4178 -112.6097 307° West 163 188 15,100 -120 Level Salt Lake Center
08:16PM 46.4436 -112.6603 307° West 163 188 14,900 -120 Descending Salt Lake Center
08:17PM 46.4753 -112.7244 306° West 164 189 14,900  Level Salt Lake Center
08:18PM 46.5028 -112.7769 307° West 163 188 14,900  Level Salt Lake Center
08:19PM 46.5292 -112.8292 306° West 161 185 14,900  Level Salt Lake Center
08:20PM 46.5556 -112.8819 306° West 162 186 14,900  Level Salt Lake Center
08:21PM 46.5828 -112.9344 307° West 162 186 14,900  Level Salt Lake Center
08:22PM 46.6089 -112.9875 306° West 162 186 14,900  Level Salt Lake Center
08:23PM 46.6356 -113.0414 306° West 163 188 14,900  Level Salt Lake Center
08:24PM 46.6694 -113.1072 307° West 169 194 14,900  Level Salt Lake Center
08:25PM 46.6925 -113.1544 305° West 163 188 14,900  Level Salt Lake Center
08:26PM 46.7206 -113.2081 307° West 165 190 14,900  Level Salt Lake Center
08:27PM 46.7467 -113.2622 305° West 164 189 14,900  Level Salt Lake Center
08:28PM 46.7792 -113.3264 307° West 163 188 15,000  Climbing Salt Lake Center
08:29PM 46.8067 -113.3814 306° West 168 193 15,000  Level Salt Lake Center
08:30PM 46.8336 -113.4353 306° West 155 178 15,000  Level Salt Lake Center
08:31PM 46.8586 -113.4861 306° West 154 177 15,000  Level Salt Lake Center
08:32PM 46.8833 -113.5375 305° West 155 178 15,000  Level Salt Lake Center
08:33PM 46.9108 -113.5933 306° West 158 182 15,000  Level Salt Lake Center
08:34PM 46.9358 -113.6431 306° West 154 177 15,000  Level Salt Lake Center
08:35PM 46.9633 -113.6992 306° West 157 181 15,000  Level Salt Lake Center
08:36PM 46.9883 -113.7511 305° West 158 182 15,000  Level Salt Lake Center
08:37PM 47.0144 -113.8014 307° West 157 181 15,000  Level Salt Lake Center
08:38PM 47.0417 -113.8581 305° West 158 182 15,000  Level Salt Lake Center
08:39PM 47.0667 -113.9108 305° West 158 182 15,000  Level Salt Lake Center
08:40PM 47.0919 -113.9633 305° West 158 182 15,000  Level Salt Lake Center
08:41PM 47.1203 -114.0197 306° West 159 183 15,000  Level Salt Lake Center
08:42PM 47.1461 -114.0736 305° West 161 185 15,000  Level Salt Lake Center
08:43PM 47.1747 -114.1311 306° West 162 186 15,000 -60 Level Salt Lake Center
08:44PM 47.2000 -114.1828 306° West 162 186 14,900  Descending Salt Lake Center
08:45PM 47.2269 -114.2372 306° West 165 190 15,000  Climbing Salt Lake Center
08:46PM 47.2531 -114.2944 304° West 169 194 15,000 -60 Level Salt Lake Center
08:47PM 47.2808 -114.3486 307° West 167 192 14,900  Descending Salt Lake Center
08:48PM 47.3072 -114.4072 304° West 172 198 15,000  Climbing Salt Lake Center
08:49PM 47.3344 -114.4622 306° West 167 192 15,000  Level Salt Lake Center
08:50PM 47.3664 -114.5281 306° West 168 193 15,000  Level Salt Lake Center
08:51PM 47.3944 -114.5900 304° West 167 192 15,000  Level Salt Lake Center
08:53PM 47.4214 -114.6458 306° West 167 192 15,000  Level Salt Lake Center
08:54PM 47.4478 -114.7008 305° West 170 196 15,000  Level Salt Lake Center
08:55PM 47.4750 -114.7583 305° West 171 197 15,000  Level Salt Lake Center
08:56PM 47.5011 -114.8139 305° West 165 190 15,000  Level Salt Lake Center
08:57PM 47.5275 -114.8681 306° West 163 188 15,000  Level Salt Lake Center
08:58PM 47.5542 -114.9253 305° West 168 193 15,000  Level Salt Lake Center
08:59PM 47.5806 -114.9814 305° West 166 191 15,000  Level Salt Lake Center
09:00PM 47.6128 -115.0486 305° West 167 192 15,000  Level Salt Lake Center
09:01PM 47.6397 -115.1081 304° West 171 197 15,000  Level Salt Lake Center
09:02PM 47.6669 -115.1656 305° West 171 197 15,000 -120 Level Salt Lake Center
09:03PM 47.6936 -115.2222 305° West 169 194 14,800 -360 Descending Salt Lake Center
09:04PM 47.7211 -115.2828 304° West 173 199 14,300 -540 Descending Salt Lake Center
09:05PM 47.7508 -115.3461 305° West 182 209 13,800 -540 Descending Salt Lake Center
09:06PM 47.7794 -115.4069 305° West 181 208 13,300 -480 Descending Salt Lake Center
09:07PM 47.8069 -115.4658 305° West 177 204 12,900 -480 Descending Salt Lake Center
09:08PM 47.8419 -115.5442 304° West 177 204 12,300 -540 Descending Seattle Center
09:09PM 47.8697 -115.6039 305° West 176 203 11,800 -540 Descending Seattle Center
09:10PM 47.9028 -115.6764 304° West 177 204 11,300 -540 Descending Seattle Center